KBNA/BNA METAR and TAF weather

Enter ICAO airport designator
Station Type Date Time Source
KBNA METAR 2022/12/05 15:03 UTC NOAA

KBNA 051503Z 14005KT 7SM FEW005 BKN024 OVC035 06/05 A3006 RMK AO2 T00610050 $


Station Type Date Time Source
KBNA Decoded METAR 2022/12/05 15:03 UTC NOAA

NASHVILLE INTERNATIONAL AIRPORT, TN, United States (KBNA) 36-07N 086-41W 210M
Dec 05, 2022 - 10:03 AM EST / 2022.12.05 1503 UTC
Wind: from the SE (140 degrees) at 6 MPH (5 KT):0
Visibility: 7 mile(s):0
Sky conditions: overcast
Temperature: 43.0 F (6.1 C)
Dew Point: 41.0 F (5.0 C)
Relative Humidity: 92%
Pressure (altimeter): 30.06 in. Hg (1017 hPa)
ob: KBNA 051503Z 14005KT 7SM FEW005 BKN024 OVC035 06/05 A3006 RMK AO2 T00610050
cycle: 15

Station Type Date Time Source
KBNA TAF 2022/12/05 12:22 UTC NOAA

TAF KBNA 051120Z 0512/0612 15005KT 6SM -SHRA BKN025 OVC040
FM051500 15006KT 4SM -RA BR SCT006 OVC015
FM051700 17006KT 2SM -RA BR OVC006

Example: see airport list